Time;durP1;ratioP1;P1;durP2;ratioP2;P2;SDS_P1;SDS_P2;PMS_P1;PMS_P2;Temp;Humidity;BMP_temperature;BMP_pressure;BME280_temperature;BME280_humidity;BME280_pressure;Samples;Min_cycle;Max_cycle;Signal;HPM_P1;HPM_P2
2023/05/18 00:00:40;;;;;;;10.40;3.58;;;5.80;96.90;;;;;;5052966;28;20210;-64
2023/05/18 00:03:07;;;;;;;6.68;3.47;;;5.80;97.10;;;;;;5052970;28;20236;-63
2023/05/18 00:05:33;;;;;;;8.30;3.30;;;5.70;97.40;;;;;;5052755;28;20241;-63
2023/05/18 00:08:00;;;;;;;10.43;2.28;;;5.70;97.70;;;;;;5052914;28;20255;-63
2023/05/18 00:10:27;;;;;;;11.15;2.90;;;5.70;97.90;;;;;;5052803;28;20215;-64
2023/05/18 00:12:54;;;;;;;7.28;3.40;;;5.60;98.20;;;;;;5052724;28;20211;-64
2023/05/18 00:15:21;;;;;;;7.38;3.17;;;5.60;98.30;;;;;;5052776;28;20221;-64
2023/05/18 00:17:52;;;;;;;9.98;3.63;;;5.60;98.70;;;;;;5052613;28;20217;-63
2023/05/18 00:20:20;;;;;;;3.85;2.40;;;5.50;98.90;;;;;;5052975;28;20286;-63
2023/05/18 00:22:49;;;;;;;4.55;3.10;;;5.50;99.00;;;;;;5052927;28;20209;-64
2023/05/18 00:25:16;;;;;;;6.60;3.00;;;5.50;99.40;;;;;;5052750;28;20221;-64
2023/05/18 00:27:43;;;;;;;8.18;3.10;;;5.50;99.50;;;;;;5055351;28;20204;-63
2023/05/18 00:30:10;;;;;;;8.50;3.92;;;5.40;99.70;;;;;;5056963;28;20217;-63
2023/05/18 00:32:37;;;;;;;5.00;2.92;;;5.40;99.80;;;;;;5056852;28;20202;-63
2023/05/18 00:35:06;;;;;;;4.53;3.00;;;5.40;99.90;;;;;;5057310;28;20317;-63
2023/05/18 00:37:33;;;;;;;9.13;4.25;;;5.30;99.90;;;;;;5056748;28;20225;-63
2023/05/18 00:40:00;;;;;;;5.75;3.15;;;5.30;99.90;;;;;;5056287;28;20686;-63
2023/05/18 00:42:26;;;;;;;4.90;3.10;;;5.30;99.90;;;;;;5056292;28;20642;-64
2023/05/18 00:44:53;;;;;;;6.32;3.28;;;5.20;99.90;;;;;;5056454;28;20248;-63
2023/05/18 00:47:20;;;;;;;6.57;2.80;;;5.20;99.90;;;;;;5056422;28;20667;-65
2023/05/18 00:49:47;;;;;;;5.78;2.88;;;5.20;99.90;;;;;;5056814;28;20206;-64
2023/05/18 00:52:16;;;;;;;10.27;3.30;;;5.10;99.90;;;;;;5056425;28;20293;-64
2023/05/18 00:54:43;;;;;;;6.70;3.10;;;5.10;99.90;;;;;;5056146;28;20233;-65
2023/05/18 00:57:10;;;;;;;6.97;3.22;;;5.10;99.90;;;;;;5056346;28;20597;-64
2023/05/18 00:59:37;;;;;;;6.57;3.78;;;5.10;99.90;;;;;;5055977;28;20686;-64
2023/05/18 01:02:04;;;;;;;9.40;3.10;;;5.00;99.90;;;;;;5055949;28;20210;-64
2023/05/18 01:04:31;;;;;;;4.30;3.10;;;5.00;99.90;;;;;;5055594;28;20603;-64
2023/05/18 01:07:05;;;;;;;8.85;2.70;;;5.00;99.90;;;;;;5056248;28;20202;-64
2023/05/18 01:09:34;;;;;;;4.47;2.50;;;5.10;99.90;;;;;;5056201;28;20194;-64
2023/05/18 01:12:11;;;;;;;7.35;3.20;;;5.10;99.90;;;;;;5055630;28;20731;-64
2023/05/18 01:14:44;;;;;;;7.93;3.95;;;5.20;99.90;;;;;;5055841;28;20221;-63
2023/05/18 01:17:23;;;;;;;7.20;3.28;;;5.20;99.90;;;;;;5055852;28;20210;-63
2023/05/18 01:20:06;;;;;;;9.82;3.58;;;5.30;99.90;;;;;;5055805;28;20194;-63
2023/05/18 01:22:50;;;;;;;5.43;3.40;;;5.30;99.90;;;;;;5055391;28;20286;-63
2023/05/18 01:25:32;;;;;;;7.60;3.35;;;5.30;99.90;;;;;;5055595;28;20229;-63
2023/05/18 01:28:05;;;;;;;9.88;4.57;;;5.30;99.90;;;;;;5055842;28;20193;-63
2023/05/18 01:30:33;;;;;;;6.60;3.60;;;5.30;99.90;;;;;;5055757;28;20221;-65
2023/05/18 01:33:00;;;;;;;9.15;3.90;;;5.30;99.90;;;;;;5055355;28;20667;-64
2023/05/18 01:35:27;;;;;;;10.27;4.22;;;5.30;99.90;;;;;;5055705;28;20279;-63
2023/05/18 01:37:54;;;;;;;6.53;3.00;;;5.30;99.90;;;;;;5055397;28;20592;-64
2023/05/18 01:40:21;;;;;;;14.48;3.40;;;5.20;99.90;;;;;;5055109;28;20686;-63
2023/05/18 01:42:53;;;;;;;10.13;3.65;;;5.20;99.90;;;;;;5055476;28;20573;-63
2023/05/18 01:45:24;;;;;;;5.43;3.83;;;5.20;99.90;;;;;;5055172;28;20738;-65
2023/05/18 01:47:53;;;;;;;9.50;5.10;;;5.20;99.90;;;;;;5055516;28;20209;-63
2023/05/18 01:50:27;;;;;;;4.75;3.75;;;5.20;99.90;;;;;;5055421;28;20301;-63
2023/05/18 01:53:00;;;;;;;8.35;3.85;;;5.20;99.90;;;;;;5055418;28;20194;-63
2023/05/18 01:55:30;;;;;;;7.80;3.95;;;5.20;99.90;;;;;;5054981;28;20230;-64
2023/05/18 01:58:00;;;;;;;7.25;4.00;;;5.20;99.90;;;;;;5055291;28;20264;-64
2023/05/18 02:00:28;;;;;;;8.68;4.20;;;5.20;99.90;;;;;;5055046;28;20676;-63
2023/05/18 02:02:55;;;;;;;12.68;4.28;;;5.20;99.90;;;;;;5055467;28;20292;-64
2023/05/18 02:05:22;;;;;;;10.68;4.00;;;5.20;99.90;;;;;;5055072;28;20221;-64
2023/05/18 02:07:49;;;;;;;11.15;4.22;;;5.10;99.90;;;;;;5055082;28;20202;-64
2023/05/18 02:10:15;;;;;;;11.93;4.47;;;5.10;99.90;;;;;;5054942;28;20202;-64
2023/05/18 02:12:42;;;;;;;7.22;4.13;;;5.10;99.90;;;;;;5055051;28;20198;-63
2023/05/18 02:15:10;;;;;;;12.38;4.50;;;5.00;99.90;;;;;;5054960;28;20309;-64
2023/05/18 02:17:38;;;;;;;8.57;3.67;;;5.00;99.90;;;;;;5054832;28;20228;-63
2023/05/18 02:20:07;;;;;;;6.05;4.03;;;4.90;99.90;;;;;;5054966;28;20227;-63
2023/05/18 02:22:33;;;;;;;7.90;3.63;;;4.80;99.90;;;;;;5054936;28;20209;-62
2023/05/18 02:25:00;;;;;;;12.90;4.18;;;4.80;99.90;;;;;;5054744;28;20312;-63
2023/05/18 02:27:27;;;;;;;13.45;4.63;;;4.80;99.90;;;;;;5054814;28;20197;-62
2023/05/18 02:29:55;;;;;;;7.95;4.03;;;4.80;99.90;;;;;;5054731;28;20632;-63
2023/05/18 02:32:22;;;;;;;12.27;5.50;;;4.70;99.90;;;;;;5054648;28;20297;-63
2023/05/18 02:34:53;;;;;;;7.25;4.20;;;4.60;99.90;;;;;;5054499;28;20226;-63
2023/05/18 02:37:21;;;;;;;8.25;4.95;;;4.60;99.90;;;;;;5054539;28;20209;-63
2023/05/18 02:39:48;;;;;;;9.38;3.97;;;4.50;99.90;;;;;;5054768;28;20271;-63
2023/05/18 02:42:15;;;;;;;6.95;3.70;;;4.50;99.90;;;;;;5054665;28;20755;-64
2023/05/18 02:44:42;;;;;;;7.15;4.32;;;4.50;99.90;;;;;;5054841;28;20226;-63
2023/05/18 02:47:09;;;;;;;8.15;4.25;;;4.50;99.90;;;;;;5055350;28;20664;-63
2023/05/18 02:49:36;;;;;;;13.77;4.32;;;4.50;99.90;;;;;;5055824;28;20225;-63
2023/05/18 02:52:04;;;;;;;10.50;4.63;;;4.50;99.90;;;;;;5055630;28;20289;-63
2023/05/18 02:54:31;;;;;;;6.60;3.80;;;4.60;99.90;;;;;;5054088;28;20233;-63
2023/05/18 02:56:58;;;;;;;5.75;3.97;;;4.60;99.90;;;;;;5053834;28;20229;-63
2023/05/18 02:59:25;;;;;;;10.60;4.13;;;4.60;99.90;;;;;;5054237;28;20209;-64
2023/05/18 03:01:52;;;;;;;8.07;4.53;;;4.60;99.90;;;;;;5054178;28;20208;-62
2023/05/18 03:04:18;;;;;;;7.82;4.20;;;4.60;99.90;;;;;;5053952;28;20221;-64
2023/05/18 03:06:46;;;;;;;4.80;4.30;;;4.60;99.90;;;;;;5053951;28;20202;-62
2023/05/18 03:09:14;;;;;;;7.70;3.50;;;4.60;99.90;;;;;;5053886;28;20331;-62
2023/05/18 03:11:41;;;;;;;6.47;4.10;;;4.60;99.90;;;;;;5053617;28;20237;-62
2023/05/18 03:14:08;;;;;;;13.05;4.18;;;4.60;99.90;;;;;;5053856;28;20597;-63
2023/05/18 03:16:37;;;;;;;6.72;3.70;;;4.60;99.90;;;;;;5054110;28;20711;-62
2023/05/18 03:19:04;;;;;;;11.48;4.28;;;4.70;99.90;;;;;;5053826;28;20216;-62
2023/05/18 03:21:34;;;;;;;5.32;3.30;;;4.60;99.90;;;;;;5053705;28;20201;-62
2023/05/18 03:24:01;;;;;;;12.32;4.07;;;4.60;99.90;;;;;;5053968;28;20222;-62
2023/05/18 03:26:30;;;;;;;11.48;4.15;;;4.60;99.90;;;;;;5053789;28;20208;-63
2023/05/18 03:28:56;;;;;;;4.00;3.40;;;4.50;99.90;;;;;;5053286;28;20228;-63
2023/05/18 03:31:24;;;;;;;8.35;3.65;;;4.50;99.90;;;;;;5054489;28;20232;-63
2023/05/18 03:33:51;;;;;;;6.00;3.10;;;4.50;99.90;;;;;;5053750;28;20201;-65
2023/05/18 03:36:21;;;;;;;12.88;4.03;;;4.50;99.90;;;;;;5053682;28;20224;-63
2023/05/18 03:38:48;;;;;;;11.85;3.72;;;4.50;99.90;;;;;;5053455;28;20228;-63
2023/05/18 03:41:14;;;;;;;6.05;3.33;;;4.50;99.90;;;;;;5053489;28;20202;-64
2023/05/18 03:43:42;;;;;;;6.93;3.65;;;4.50;99.90;;;;;;5052746;28;20573;-63
2023/05/18 03:46:09;;;;;;;8.52;3.78;;;4.50;99.90;;;;;;5053870;28;20212;-65
2023/05/18 03:48:36;;;;;;;4.50;3.75;;;4.50;99.90;;;;;;5053274;28;20193;-63
2023/05/18 03:51:03;;;;;;;4.57;3.47;;;4.50;99.90;;;;;;5053169;28;20197;-63
2023/05/18 03:53:30;;;;;;;5.88;3.80;;;4.50;99.90;;;;;;5053164;28;20216;-65
2023/05/18 03:55:57;;;;;;;9.05;3.92;;;4.60;99.90;;;;;;5052991;28;20630;-64
2023/05/18 03:58:23;;;;;;;8.75;3.75;;;4.60;99.90;;;;;;5053028;28;20225;-63
2023/05/18 04:00:52;;;;;;;8.43;3.65;;;4.70;99.90;;;;;;5053061;28;20201;-64
2023/05/18 04:03:20;;;;;;;7.50;4.45;;;4.70;99.90;;;;;;5052656;28;20206;-64
2023/05/18 04:05:48;;;;;;;6.82;3.55;;;4.90;99.90;;;;;;5052995;28;20271;-64
2023/05/18 04:11:43;;;;;;;6.18;3.80;;;5.40;99.90;;;;;;5132394;27;21158;-64
2023/05/18 04:14:10;;;;;;;8.75;3.70;;;5.60;99.90;;;;;;5131661;28;20226;-63
2023/05/18 04:16:37;;;;;;;3.85;2.90;;;5.90;99.90;;;;;;5131687;28;20224;-63
2023/05/18 04:19:05;;;;;;;7.22;3.10;;;6.20;99.90;;;;;;5131347;28;20199;-63
2023/05/18 04:21:34;;;;;;;9.32;2.92;;;6.60;99.90;;;;;;5131248;28;20199;-64
2023/05/18 04:24:04;;;;;;;10.98;3.72;;;7.00;99.90;;;;;;5131415;27;20570;-63
2023/05/18 04:26:31;;;;;;;7.45;3.10;;;7.30;99.90;;;;;;5131200;28;20228;-63
2023/05/18 04:28:59;;;;;;;14.63;3.20;;;7.60;99.90;;;;;;5130873;28;20198;-63
2023/05/18 04:31:28;;;;;;;4.65;2.95;;;8.00;99.90;;;;;;5131015;27;20215;-63
2023/05/18 04:33:56;;;;;;;8.95;3.20;;;8.20;99.90;;;;;;5131194;27;20542;-63
2023/05/18 04:36:24;;;;;;;4.75;3.45;;;8.30;99.90;;;;;;5130976;28;20298;-64
2023/05/18 04:38:51;;;;;;;7.47;2.90;;;8.50;99.90;;;;;;5130952;28;20203;-63
2023/05/18 04:41:20;;;;;;;4.50;2.35;;;8.70;99.20;;;;;;5131264;28;20203;-64
2023/05/18 04:43:49;;;;;;;10.07;3.07;;;8.80;98.10;;;;;;5130989;28;20199;-64
2023/05/18 04:46:17;;;;;;;7.53;2.87;;;8.90;96.90;;;;;;5130631;28;20444;-64
2023/05/18 04:48:48;;;;;;;8.87;3.60;;;9.00;96.40;;;;;;5130989;28;20444;-64
2023/05/18 04:51:16;;;;;;;8.07;2.87;;;9.00;94.90;;;;;;5130609;28;20881;-64
2023/05/18 04:53:44;;;;;;;4.97;2.90;;;8.90;94.00;;;;;;5130269;28;20448;-63
2023/05/18 04:56:12;;;;;;;8.27;3.00;;;8.90;94.10;;;;;;5131048;28;21116;-64
2023/05/18 04:58:40;;;;;;;6.20;3.33;;;9.00;94.20;;;;;;5130543;28;20445;-64
2023/05/18 05:01:07;;;;;;;5.90;3.30;;;9.20;93.30;;;;;;5130589;28;20444;-64
2023/05/18 05:03:35;;;;;;;7.13;3.17;;;9.50;92.40;;;;;;5130481;28;20436;-64
2023/05/18 05:06:02;;;;;;;4.30;2.40;;;9.80;91.30;;;;;;5130483;28;20479;-64
2023/05/18 05:08:28;;;;;;;4.83;2.60;;;10.00;88.70;;;;;;5130442;28;20539;-63
2023/05/18 05:10:55;;;;;;;4.47;2.93;;;10.10;85.20;;;;;;5129950;28;20857;-63
2023/05/18 05:13:22;;;;;;;9.13;3.07;;;10.20;83.70;;;;;;5130476;28;20444;-62
2023/05/18 05:15:49;;;;;;;5.50;2.77;;;10.20;83.10;;;;;;5130504;28;20465;-64
2023/05/18 05:18:16;;;;;;;6.90;2.80;;;10.40;82.70;;;;;;5130588;28;20444;-64
2023/05/18 05:20:44;;;;;;;5.33;2.63;;;10.60;79.10;;;;;;5130379;28;20447;-63
2023/05/18 05:23:11;;;;;;;5.43;2.70;;;10.70;76.70;;;;;;5116122;28;20441;-63
2023/05/18 05:25:38;;;;;;;5.47;2.27;;;10.70;75.50;;;;;;5116387;28;20982;-63
2023/05/18 05:28:04;;;;;;;6.60;3.30;;;10.80;73.90;;;;;;5116513;28;21003;-62
2023/05/18 05:30:32;;;;;;;4.93;2.77;;;10.80;72.80;;;;;;5116612;28;20477;-63
2023/05/18 05:32:58;;;;;;;5.77;2.90;;;10.80;71.60;;;;;;5116774;28;20437;-63
2023/05/18 05:35:25;;;;;;;3.97;2.10;;;10.80;70.40;;;;;;5116540;28;20929;-63
2023/05/18 05:37:53;;;;;;;4.77;2.60;;;10.80;70.10;;;;;;5116468;28;20441;-63
2023/05/18 05:40:20;;;;;;;5.30;2.20;;;10.90;69.70;;;;;;5116377;28;20437;-64
2023/05/18 05:42:47;;;;;;;4.97;3.10;;;10.80;67.50;;;;;;5116438;28;20448;-64
2023/05/18 05:45:14;;;;;;;5.43;2.33;;;10.60;67.70;;;;;;5115888;28;20466;-63
2023/05/18 05:47:41;;;;;;;11.93;3.00;;;10.60;67.70;;;;;;5116490;28;20846;-63
2023/05/18 05:50:08;;;;;;;5.00;3.07;;;10.40;66.70;;;;;;5116156;28;20492;-63
2023/05/18 05:52:35;;;;;;;7.70;2.50;;;10.30;67.00;;;;;;5115862;28;20449;-63
2023/05/18 05:55:03;;;;;;;12.10;3.97;;;10.10;67.10;;;;;;5115512;28;20478;-63
2023/05/18 05:57:30;;;;;;;5.53;3.00;;;10.00;68.50;;;;;;5115740;28;20892;-63
2023/05/18 05:59:57;;;;;;;5.83;2.57;;;10.00;67.10;;;;;;5116012;28;20446;-64
2023/05/18 06:02:23;;;;;;;4.30;2.13;;;10.00;67.30;;;;;;5115578;28;20801;-63
2023/05/18 06:04:50;;;;;;;5.33;2.30;;;10.00;66.60;;;;;;5115416;28;20465;-63
2023/05/18 06:07:17;;;;;;;6.77;2.57;;;9.80;67.10;;;;;;5115458;28;20441;-63
2023/05/18 06:09:44;;;;;;;4.10;1.90;;;9.70;67.00;;;;;;5115369;28;20836;-63
2023/05/18 06:12:12;;;;;;;7.10;2.43;;;9.50;66.60;;;;;;5115347;28;20548;-63
2023/05/18 06:14:39;;;;;;;6.47;2.10;;;9.50;67.00;;;;;;5115170;28;20472;-64
2023/05/18 06:17:06;;;;;;;8.90;2.63;;;9.50;67.20;;;;;;5115354;28;20469;-63
2023/05/18 06:19:32;;;;;;;5.13;2.17;;;9.60;66.70;;;;;;5116079;28;20446;-63
2023/05/18 06:21:59;;;;;;;5.40;2.93;;;9.60;66.50;;;;;;5114943;28;20437;-64
2023/05/18 06:24:26;;;;;;;7.77;2.67;;;9.60;65.60;;;;;;5114956;28;20465;-65
2023/05/18 06:26:53;;;;;;;3.67;2.00;;;9.60;65.40;;;;;;5115271;28;20494;-64
2023/05/18 06:29:21;;;;;;;11.23;2.60;;;9.70;65.00;;;;;;5115885;27;20449;-64
2023/05/18 06:31:48;;;;;;;5.17;2.90;;;9.80;64.50;;;;;;5114845;28;20499;-64
2023/05/18 06:34:15;;;;;;;7.17;3.17;;;9.90;64.00;;;;;;5114088;28;20461;-63
2023/05/18 06:36:42;;;;;;;6.25;2.63;;;10.00;62.50;;;;;;5114985;28;20449;-63
2023/05/18 06:39:09;;;;;;;6.40;2.80;;;10.10;62.10;;;;;;5114534;28;20688;-65
2023/05/18 06:41:36;;;;;;;5.53;2.45;;;10.20;61.60;;;;;;5114972;28;20444;-65
2023/05/18 06:44:03;;;;;;;6.50;3.13;;;10.20;61.10;;;;;;5114387;28;20311;-63
2023/05/18 06:46:31;;;;;;;3.57;2.40;;;10.20;61.10;;;;;;5114383;28;20473;-64
2023/05/18 06:48:58;;;;;;;5.20;2.58;;;10.20;60.80;;;;;;5114904;28;20443;-65
2023/05/18 06:51:25;;;;;;;8.70;2.90;;;10.30;61.00;;;;;;5114941;28;20219;-64
2023/05/18 06:53:52;;;;;;;5.03;2.90;;;10.40;60.80;;;;;;5114883;28;20203;-65
2023/05/18 06:56:19;;;;;;;5.40;2.70;;;10.50;60.50;;;;;;5114702;28;20449;-64
2023/05/18 06:58:45;;;;;;;3.70;2.73;;;10.60;60.80;;;;;;5114482;28;20464;-63
2023/05/18 07:01:12;;;;;;;6.83;3.87;;;10.70;59.80;;;;;;5115069;28;20438;-65
2023/05/18 07:03:40;;;;;;;9.70;3.30;;;10.80;59.30;;;;;;5114674;28;20441;-63
2023/05/18 07:06:07;;;;;;;8.30;3.40;;;10.80;58.90;;;;;;5114767;28;20444;-64
2023/05/18 07:08:35;;;;;;;4.90;3.30;;;10.90;58.70;;;;;;5114936;28;20456;-65
2023/05/18 07:11:02;;;;;;;5.00;3.63;;;10.80;58.60;;;;;;5113903;28;20517;-65
2023/05/18 07:13:29;;;;;;;7.10;3.33;;;10.90;58.50;;;;;;5114132;28;20441;-65
2023/05/18 07:15:56;;;;;;;5.10;2.80;;;10.90;58.20;;;;;;5114371;28;20565;-65
2023/05/18 07:18:23;;;;;;;7.23;3.60;;;11.00;58.30;;;;;;5114464;28;20441;-65
2023/05/18 07:20:51;;;;;;;8.13;3.37;;;11.00;57.80;;;;;;5114488;28;20445;-65
2023/05/18 07:23:18;;;;;;;11.77;3.30;;;11.00;57.50;;;;;;5114428;28;20436;-64
2023/05/18 07:25:45;;;;;;;6.00;3.43;;;11.00;57.50;;;;;;5113903;28;20453;-64
2023/05/18 07:28:12;;;;;;;6.53;3.20;;;11.00;57.40;;;;;;5114128;28;20450;-65
2023/05/18 07:30:39;;;;;;;8.57;3.60;;;11.10;57.30;;;;;;5113726;28;20843;-65
2023/05/18 07:33:06;;;;;;;8.40;3.80;;;11.10;57.20;;;;;;5114034;28;20494;-64
2023/05/18 07:35:33;;;;;;;3.80;2.60;;;11.20;56.80;;;;;;5114262;28;20564;-63
2023/05/18 07:38:01;;;;;;;4.20;2.80;;;11.30;56.80;;;;;;5114354;28;20835;-65
2023/05/18 07:40:28;;;;;;;5.20;3.70;;;11.50;56.20;;;;;;5113794;28;20525;-64
2023/05/18 07:42:54;;;;;;;5.33;3.37;;;11.60;55.80;;;;;;5113894;28;20536;-65
2023/05/18 07:45:22;;;;;;;9.77;3.40;;;11.60;55.60;;;;;;5113333;28;21022;-65
2023/05/18 07:47:49;;;;;;;7.00;3.23;;;11.60;55.50;;;;;;5113816;28;20894;-64
2023/05/18 07:50:16;;;;;;;4.93;3.00;;;11.80;55.50;;;;;;5113936;28;20533;-63
2023/05/18 07:52:43;;;;;;;3.70;3.13;;;11.80;55.10;;;;;;5113891;28;20560;-63
2023/05/18 07:55:11;;;;;;;6.03;4.37;;;11.90;54.90;;;;;;5113497;28;20970;-63
2023/05/18 07:57:39;;;;;;;6.10;3.17;;;11.90;55.00;;;;;;5114225;28;20441;-63
2023/05/18 08:00:09;;;;;;;5.50;3.27;;;12.00;55.00;;;;;;5114291;28;20797;-64
2023/05/18 08:02:36;;;;;;;7.77;3.40;;;12.00;54.40;;;;;;5113774;28;20433;-65
2023/05/18 08:05:03;;;;;;;8.70;3.60;;;12.00;54.30;;;;;;5113679;28;20883;-63
2023/05/18 08:07:31;;;;;;;6.00;3.50;;;12.00;54.20;;;;;;5113885;28;20441;-64
2023/05/18 08:09:58;;;;;;;6.57;3.10;;;12.00;54.20;;;;;;5113989;28;20548;-64
2023/05/18 08:12:28;;;;;;;5.03;3.40;;;12.00;54.10;;;;;;5113624;28;20943;-64
2023/05/18 08:14:55;;;;;;;4.90;3.37;;;11.90;53.80;;;;;;5113382;28;20504;-63
2023/05/18 08:17:22;;;;;;;7.20;3.40;;;11.80;54.00;;;;;;5113867;28;20809;-64
2023/05/18 08:19:49;;;;;;;6.27;3.20;;;11.80;54.40;;;;;;5113762;28;20437;-63
2023/05/18 08:22:15;;;;;;;6.30;3.10;;;12.00;54.60;;;;;;5113800;28;21010;-64
2023/05/18 08:24:43;;;;;;;6.93;3.60;;;12.20;54.00;;;;;;5113936;28;20834;-63
2023/05/18 08:27:10;;;;;;;6.80;3.00;;;12.40;53.50;;;;;;5114186;28;20456;-64
2023/05/18 08:29:38;;;;;;;7.60;4.33;;;12.60;53.10;;;;;;5114623;28;20506;-63
2023/05/18 08:32:06;;;;;;;4.83;3.33;;;12.70;52.60;;;;;;5113976;28;20481;-65
2023/05/18 08:34:33;;;;;;;4.83;3.37;;;12.80;52.30;;;;;;5114739;28;20499;-64
2023/05/18 08:37:00;;;;;;;6.67;3.37;;;12.90;52.20;;;;;;5114652;28;20448;-64
2023/05/18 08:39:30;;;;;;;5.43;3.60;;;13.00;51.70;;;;;;5114154;28;20448;-64
2023/05/18 08:42:02;;;;;;;7.40;4.07;;;13.20;51.50;;;;;;5115159;28;20437;-64
2023/05/18 08:44:33;;;;;;;7.17;3.70;;;13.10;51.00;;;;;;5113897;28;20568;-64
2023/05/18 08:47:08;;;;;;;8.23;4.30;;;13.10;51.20;;;;;;5113782;28;20429;-64
2023/05/18 08:49:36;;;;;;;5.93;3.60;;;13.10;51.00;;;;;;5114469;28;20425;-64
2023/05/18 08:52:05;;;;;;;6.60;3.60;;;13.20;51.20;;;;;;5113888;28;20485;-64
2023/05/18 08:54:36;;;;;;;5.60;4.07;;;13.10;50.50;;;;;;5113678;28;20464;-64
2023/05/18 08:57:07;;;;;;;10.13;3.93;;;13.00;51.30;;;;;;5115322;28;20517;-63
2023/05/18 08:59:40;;;;;;;7.27;3.70;;;13.00;51.00;;;;;;5117445;28;20425;-65
2023/05/18 09:02:09;;;;;;;7.87;3.80;;;13.00;50.70;;;;;;5117479;28;20784;-65
2023/05/18 09:04:37;;;;;;;5.00;3.67;;;13.00;50.70;;;;;;5117040;28;20465;-63
2023/05/18 09:07:06;;;;;;;4.30;3.70;;;12.90;50.90;;;;;;5116967;28;20441;-64
2023/05/18 09:09:34;;;;;;;7.93;3.93;;;12.80;51.00;;;;;;5116220;28;20452;-63
2023/05/18 09:12:02;;;;;;;4.53;3.93;;;12.80;51.10;;;;;;5116623;28;20550;-63
2023/05/18 09:14:31;;;;;;;7.57;4.33;;;12.90;51.20;;;;;;5116386;28;20461;-63
2023/05/18 09:16:58;;;;;;;7.73;3.63;;;12.90;51.10;;;;;;5117313;28;20445;-63
2023/05/18 09:19:27;;;;;;;9.10;4.80;;;12.90;51.10;;;;;;5116373;28;20447;-63
2023/05/18 09:21:54;;;;;;;8.80;3.90;;;13.20;51.00;;;;;;5116570;28;20463;-63
2023/05/18 09:24:21;;;;;;;4.70;3.30;;;13.40;50.40;;;;;;5117510;28;20829;-64
2023/05/18 09:26:48;;;;;;;5.30;3.70;;;13.70;50.20;;;;;;5116556;28;20538;-63
2023/05/18 09:29:19;;;;;;;7.50;3.90;;;14.00;49.80;;;;;;5116786;28;20491;-64
2023/05/18 09:31:47;;;;;;;9.00;4.40;;;14.50;49.40;;;;;;5115901;28;20986;-63
2023/05/18 09:34:14;;;;;;;4.17;3.43;;;14.90;48.50;;;;;;5116496;28;20539;-63
2023/05/18 09:36:45;;;;;;;4.80;3.57;;;15.40;47.80;;;;;;5116168;28;20995;-63
2023/05/18 09:39:12;;;;;;;4.73;3.87;;;15.80;46.90;;;;;;5116593;28;20437;-64
2023/05/18 09:41:40;;;;;;;5.53;3.60;;;15.90;46.00;;;;;;5116359;28;20812;-64
2023/05/18 09:44:08;;;;;;;6.13;4.37;;;16.10;45.50;;;;;;5116727;28;20522;-63
2023/05/18 09:46:36;;;;;;;5.03;3.60;;;16.00;45.20;;;;;;5116423;28;20854;-63
2023/05/18 09:49:04;;;;;;;7.53;3.93;;;16.00;45.20;;;;;;5116212;28;20972;-63
2023/05/18 09:51:34;;;;;;;7.20;4.47;;;15.90;45.10;;;;;;5115786;28;20867;-63
2023/05/18 09:54:04;;;;;;;8.20;4.57;;;15.80;45.20;;;;;;5116713;28;20462;-64
2023/05/18 09:56:34;;;;;;;9.53;4.13;;;15.90;45.10;;;;;;5117336;28;20444;-65
2023/05/18 09:59:08;;;;;;;7.83;4.90;;;15.90;44.70;;;;;;5116429;28;20442;-63
2023/05/18 10:01:35;;;;;;;12.43;9.30;;;16.00;44.50;;;;;;5117124;28;20521;-63
2023/05/18 10:04:03;;;;;;;14.57;8.00;;;16.20;44.50;;;;;;5116199;28;20459;-64
2023/05/18 10:06:31;;;;;;;15.40;8.70;;;16.40;44.00;;;;;;5116429;28;20465;-64
2023/05/18 10:08:58;;;;;;;7.83;4.73;;;16.50;43.60;;;;;;5116369;28;20445;-63
2023/05/18 10:11:30;;;;;;;6.10;3.40;;;16.60;43.30;;;;;;5116037;28;20958;-63
2023/05/18 10:13:58;;;;;;;4.57;3.30;;;16.70;43.20;;;;;;5115937;28;20433;-63
2023/05/18 10:16:25;;;;;;;8.00;3.80;;;16.70;42.80;;;;;;5115844;28;20433;-63
2023/05/18 10:18:54;;;;;;;8.23;3.63;;;16.60;42.80;;;;;;5115679;28;20444;-64
2023/05/18 10:21:24;;;;;;;6.27;4.07;;;16.60;43.10;;;;;;5115351;28;20473;-65
2023/05/18 10:23:51;;;;;;;6.73;3.73;;;16.70;43.10;;;;;;5115798;28;20433;-64
2023/05/18 10:26:22;;;;;;;7.50;4.07;;;16.80;42.90;;;;;;5116467;28;20883;-63
2023/05/18 10:28:53;;;;;;;5.00;4.00;;;16.60;42.60;;;;;;5116831;28;20437;-63
2023/05/18 10:31:21;;;;;;;8.70;4.07;;;16.40;42.70;;;;;;5116433;28;20844;-64
2023/05/18 10:33:50;;;;;;;6.90;4.33;;;16.20;43.10;;;;;;5117058;28;20445;-64
2023/05/18 10:36:18;;;;;;;7.50;3.73;;;16.10;43.10;;;;;;5116205;28;20441;-66
2023/05/18 10:38:46;;;;;;;5.00;4.17;;;16.20;43.10;;;;;;5115782;28;20544;-64
2023/05/18 10:41:14;;;;;;;6.50;4.20;;;16.20;42.90;;;;;;5115445;28;20482;-64
2023/05/18 10:43:42;;;;;;;6.57;4.07;;;16.20;42.90;;;;;;5115323;28;20448;-64
2023/05/18 10:46:12;;;;;;;6.33;4.40;;;16.10;42.80;;;;;;5115468;28;20449;-63
2023/05/18 10:48:40;;;;;;;7.90;4.23;;;16.20;42.80;;;;;;5115845;28;20449;-63
2023/05/18 10:51:08;;;;;;;5.97;3.53;;;16.40;42.70;;;;;;5115093;28;20959;-64
2023/05/18 10:53:35;;;;;;;5.30;4.30;;;16.50;42.30;;;;;;5114887;28;20480;-64
2023/05/18 10:56:02;;;;;;;7.27;3.87;;;16.60;42.20;;;;;;5094652;22;20488;-65
2023/05/18 10:58:31;;;;;;;8.00;3.53;;;16.80;42.00;;;;;;5053527;28;20446;-63
2023/05/18 11:00:59;;;;;;;3.80;3.40;;;16.90;41.80;;;;;;5054070;28;20449;-64
2023/05/18 11:03:28;;;;;;;6.00;4.37;;;17.10;41.70;;;;;;5053886;28;20440;-64
2023/05/18 11:06:05;;;;;;;5.97;3.60;;;17.10;41.30;;;;;;5054125;28;20460;-64
2023/05/18 11:08:32;;;;;;;6.03;3.67;;;17.00;41.20;;;;;;5053860;28;20955;-63
2023/05/18 11:11:01;;;;;;;5.43;3.90;;;17.00;41.40;;;;;;5054395;28;20452;-64
2023/05/18 11:13:31;;;;;;;6.80;3.60;;;17.00;41.20;;;;;;5053635;28;20483;-64
2023/05/18 11:16:05;;;;;;;10.20;4.30;;;17.00;41.00;;;;;;5055891;28;20468;-64
2023/05/18 11:18:51;;;;;;;10.40;4.60;;;17.00;40.80;;;;;;5056383;28;20555;-64
2023/05/18 11:21:34;;;;;;;7.80;3.80;;;17.20;40.60;;;;;;5055130;28;20875;-62
2023/05/18 11:24:15;;;;;;;7.43;3.63;;;17.20;40.50;;;;;;5047322;28;20452;-62
2023/05/18 11:26:42;;;;;;;4.80;3.20;;;17.30;40.40;;;;;;5055518;28;20474;-60
2023/05/18 11:29:24;;;;;;;5.90;3.70;;;17.50;40.10;;;;;;5061550;28;20508;-57
2023/05/18 11:31:53;;;;;;;5.40;3.17;;;17.70;39.80;;;;;;5053634;28;20459;-60
2023/05/18 11:34:43;;;;;;;7.47;3.40;;;17.50;39.70;;;;;;5053771;28;20547;-62
2023/05/18 11:37:11;;;;;;;7.57;3.87;;;17.40;39.90;;;;;;5055518;28;20467;-60
2023/05/18 11:39:38;;;;;;;5.23;3.40;;;17.50;39.90;;;;;;5057070;28;20964;-61
2023/05/18 11:42:07;;;;;;;5.43;3.53;;;17.50;39.70;;;;;;5053603;28;20441;-61
2023/05/18 11:44:35;;;;;;;4.50;3.47;;;17.50;39.40;;;;;;5053735;28;20494;-61
2023/05/18 11:47:03;;;;;;;5.40;3.70;;;17.50;39.30;;;;;;5053106;28;20451;-61
2023/05/18 11:49:32;;;;;;;5.30;3.40;;;17.80;39.30;;;;;;5053366;28;20444;-61
2023/05/18 11:52:06;;;;;;;6.00;3.77;;;18.00;38.60;;;;;;5053616;28;20488;-60
2023/05/18 11:54:42;;;;;;;4.00;3.60;;;18.40;37.90;;;;;;5056219;28;20448;-60
2023/05/18 11:57:09;;;;;;;4.63;3.47;;;18.80;37.30;;;;;;5053500;28;20441;-62
2023/05/18 11:59:38;;;;;;;7.53;3.77;;;19.10;37.00;;;;;;5053579;28;20454;-61
2023/05/18 12:02:05;;;;;;;7.43;3.80;;;19.40;36.80;;;;;;5053180;28;20455;-61
2023/05/18 12:04:33;;;;;;;7.30;4.27;;;19.50;35.80;;;;;;5053682;28;20440;-62
2023/05/18 12:07:06;;;;;;;6.80;2.83;;;19.70;35.50;;;;;;5053177;28;20448;-62
2023/05/18 12:09:33;;;;;;;7.30;3.33;;;20.00;35.20;;;;;;5053028;28;20428;-61
2023/05/18 12:12:01;;;;;;;5.13;3.40;;;20.10;34.70;;;;;;5052712;28;20452;-61
2023/05/18 12:14:30;;;;;;;4.30;3.43;;;20.30;34.50;;;;;;5052901;28;20502;-60
2023/05/18 12:16:59;;;;;;;7.60;3.00;;;20.50;35.10;;;;;;5052894;28;20447;-62
2023/05/18 12:19:26;;;;;;;5.33;3.30;;;20.90;34.10;;;;;;5053716;28;20926;-61
2023/05/18 12:21:53;;;;;;;4.40;3.60;;;21.10;34.00;;;;;;5054202;28;20448;-62
2023/05/18 12:24:21;;;;;;;8.07;3.43;;;21.10;33.90;;;;;;5055112;28;20444;-63
2023/05/18 12:26:48;;;;;;;7.60;3.30;;;20.90;33.90;;;;;;5056187;28;20448;-62
2023/05/18 12:29:18;;;;;;;4.50;3.30;;;20.60;33.90;;;;;;5055101;28;20456;-62
2023/05/18 12:31:47;;;;;;;7.90;3.23;;;20.40;34.20;;;;;;5055747;28;20960;-61
2023/05/18 12:34:15;;;;;;;5.13;3.07;;;20.10;34.60;;;;;;5059156;28;20475;-62
2023/05/18 12:36:51;;;;;;;6.07;3.40;;;19.80;35.10;;;;;;5059301;28;20497;-61
2023/05/18 12:39:18;;;;;;;6.87;3.43;;;19.40;35.60;;;;;;5057474;28;20477;-62
2023/05/18 12:41:46;;;;;;;9.30;4.03;;;19.10;36.20;;;;;;5056787;28;20443;-62
2023/05/18 12:44:13;;;;;;;4.60;2.97;;;18.80;36.50;;;;;;5056767;28;20535;-62
2023/05/18 12:46:41;;;;;;;7.10;3.50;;;18.50;36.80;;;;;;5056708;28;20471;-62
2023/05/18 12:49:09;;;;;;;6.50;3.33;;;18.30;37.00;;;;;;5056569;28;20509;-62
2023/05/18 12:51:38;;;;;;;7.80;3.37;;;18.20;37.20;;;;;;5057008;28;20513;-62
2023/05/18 12:54:06;;;;;;;7.07;3.70;;;18.20;37.40;;;;;;5056569;28;20568;-62
2023/05/18 12:56:59;;;;;;;5.33;3.53;;;18.10;37.30;;;;;;5056171;28;20481;-63
2023/05/18 12:59:26;;;;;;;6.47;4.10;;;18.10;37.20;;;;;;5056547;28;20464;-62